METAR Data
IDs: Format: Raw Decoded Include TAF

Data at: 0236 UTC 18 Jun 2019

PFEL 180156Z AUTO 36011KT 10SM CLR 21/01 A2963 RMK AO2 SLP034 T02110006
PFEL 180056Z AUTO 01013G17KT 10SM CLR 21/02 A2964 RMK AO2 SLP037 T02110022
PFEL 172356Z AUTO 02018G27KT 10SM CLR 21/04 A2965 RMK AO2 PK WND 02027/2353 SLP041 T02110039 10211 20189 56011
PFEL 172256Z AUTO 34008G16KT 10SM CLR 21/05 A2966 RMK AO2 SLP043 T02060050
PFEL 172156Z AUTO 04008G18KT 10SM CLR 20/06 A2967 RMK AO2 SLP047 T02000056
PFEL 172056Z AUTO 01010G17KT 10SM CLR 20/06 A2968 RMK AO2 SLP051 T02000056 58012
PFEL 171956Z AUTO 02012G20KT 10SM CLR 19/05 A2970 RMK AO2 SLP058 T01940050
PFEL 171856Z AUTO 02013KT 10SM CLR 19/05 A2971 RMK AO2 SLP061 T01940050
PFEL 171756Z AUTO 01011KT 10SM CLR 19/04 A2972 RMK AO2 SLP063 T01940044 10194 20139 58012
PFEL 171656Z AUTO 02009KT 10SM CLR 18/04 A2973 RMK AO2 SLP068 T01830039
PFEL 171556Z AUTO 04004KT 10SM CLR 17/05 A2974 RMK AO2 SLP070 T01670050
PFEL 171456Z AUTO 00000KT 10SM CLR 15/07 A2975 RMK AO2 SLP076 T01500072 55005
PFEL 171356Z AUTO 00000KT 10SM CLR 14/03 A2975 RMK AO2 SLP073 T01390028
PFEL 171256Z AUTO 36006KT 10SM CLR 14/02 A2975 RMK AO2 SLP076 T01390022
PFEL 171156Z AUTO 36008KT 10SM CLR 14/03 A2977 RMK AO2 SLP080 T01440028 10217 20139 58004
PFEL 171056Z AUTO 36007KT 10SM CLR 14/03 A2977 RMK AO2 SLP082 T01440028
PFEL 170956Z AUTO 36007KT 10SM CLR 16/03 A2978 RMK AO2 SLP084 T01610028
PFEL 170856Z AUTO 36006KT 10SM CLR 17/03 A2978 RMK AO2 SLP084 T01670028 402330128 50003
PFEL 170756Z AUTO 36008KT 10SM CLR 18/03 A2978 RMK AO2 SLP084 T01830033
PFEL 170656Z AUTO 01012KT 10SM CLR 21/03 A2977 RMK AO2 SLP082 T02060033
PFEL 170556Z AUTO 01014G19KT 10SM CLR 22/04 A2977 RMK AO2 SLP080 T02170039 10233 20217 56003
PFEL 170456Z AUTO 02013G18KT 10SM CLR 22/04 A2977 RMK AO2 SLP080 T02220044
PFEL 170356Z AUTO 02010KT 10SM CLR 23/06 A2977 RMK AO2 SLP081 T02280061
PFEL 170256Z AUTO 01011KT 10SM SCT075 23/06 A2978 RMK AO2 SLP084 T02280061 56010
PFEL 170156Z AUTO 02010G16KT 10SM FEW075 23/06 A2978 RMK AO2 SLP085 T02280056
PFEL 170056Z AUTO 36010G18KT 10SM CLR 23/05 A2980 RMK AO2 SLP091 T02280050
PFEL 162356Z AUTO 02015G21KT 10SM CLR 23/06 A2981 RMK AO2 SLP094 T02280056 10228 20189 56012
PFEL 162256Z AUTO 03011G16KT 10SM SCT065 22/07 A2982 RMK AO2 SLP098 T02170067
PFEL 162156Z AUTO 08011KT 10SM CLR 21/08 A2983 RMK AO2 SLP102 T02110078
PFEL 162056Z AUTO 05011G16KT 10SM CLR 21/08 A2984 RMK AO2 SLP106 T02060078 58002
PFEL 161956Z AUTO 05012G17KT 10SM CLR 20/08 A2985 RMK AO2 SLP109 T02000078
PFEL 161856Z AUTO 06010KT 10SM CLR 19/08 A2985 RMK AO2 SLP109 T01940083
PFEL 161756Z AUTO 04011KT 10SM CLR 19/08 A2985 RMK AO2 SLP109 T01890078 10189 20128 56002
PFEL 161656Z AUTO 01006KT 8SM CLR 17/08 A2985 RMK AO2 SLP110 T01720078
PFEL 161556Z AUTO 36006KT 9SM CLR 16/08 A2985 RMK AO2 SLP109 T01610078
PFEL 161456Z AUTO 33006KT 10SM BKN065 15/07 A2986 RMK AO2 SLP111 T01500072 53002